sensor_id;sensor_type;location;lat;lon;timestamp;temperature;humidity
20068;DHT22;10194;50.824;7.134;2024-03-02T00:00:52;7.80;99.90
20068;DHT22;10194;50.824;7.134;2024-03-02T00:03:19;7.80;99.90
20068;DHT22;10194;50.824;7.134;2024-03-02T00:05:49;7.90;99.90
20068;DHT22;10194;50.824;7.134;2024-03-02T00:08:23;7.90;99.90
20068;DHT22;10194;50.824;7.134;2024-03-02T00:10:51;7.90;99.90
20068;DHT22;10194;50.824;7.134;2024-03-02T00:13:20;8.00;99.90
20068;DHT22;10194;50.824;7.134;2024-03-02T00:15:54;8.00;99.90
20068;DHT22;10194;50.824;7.134;2024-03-02T00:20:57;8.10;99.90
20068;DHT22;10194;50.824;7.134;2024-03-02T00:23:25;8.10;99.90
20068;DHT22;10194;50.824;7.134;2024-03-02T00:25:56;8.20;99.90
20068;DHT22;10194;50.824;7.134;2024-03-02T00:28:25;8.20;99.90
20068;DHT22;10194;50.824;7.134;2024-03-02T00:33:46;8.10;99.90
20068;DHT22;10194;50.824;7.134;2024-03-02T00:36:26;8.10;99.90
20068;DHT22;10194;50.824;7.134;2024-03-02T00:38:54;8.10;99.90
20068;DHT22;10194;50.824;7.134;2024-03-02T00:41:27;8.10;99.90
20068;DHT22;10194;50.824;7.134;2024-03-02T00:44:05;8.20;99.90
20068;DHT22;10194;50.824;7.134;2024-03-02T00:46:36;8.10;99.90
20068;DHT22;10194;50.824;7.134;2024-03-02T00:49:18;8.10;99.90
20068;DHT22;10194;50.824;7.134;2024-03-02T00:51:47;8.20;99.90
20068;DHT22;10194;50.824;7.134;2024-03-02T00:54:14;8.20;99.90
20068;DHT22;10194;50.824;7.134;2024-03-02T00:56:41;8.20;99.90
20068;DHT22;10194;50.824;7.134;2024-03-02T00:59:09;8.20;99.90
20068;DHT22;10194;50.824;7.134;2024-03-02T01:01:36;8.20;99.90
20068;DHT22;10194;50.824;7.134;2024-03-02T01:04:02;8.30;99.90
20068;DHT22;10194;50.824;7.134;2024-03-02T01:06:27;8.30;99.90
20068;DHT22;10194;50.824;7.134;2024-03-02T01:08:53;8.20;99.90
20068;DHT22;10194;50.824;7.134;2024-03-02T01:11:19;8.20;99.90
20068;DHT22;10194;50.824;7.134;2024-03-02T01:13:47;8.20;99.90
20068;DHT22;10194;50.824;7.134;2024-03-02T01:16:13;8.20;99.90
20068;DHT22;10194;50.824;7.134;2024-03-02T01:18:41;8.10;99.90
20068;DHT22;10194;50.824;7.134;2024-03-02T01:21:07;8.00;99.90
20068;DHT22;10194;50.824;7.134;2024-03-02T01:23:33;8.10;99.90
20068;DHT22;10194;50.824;7.134;2024-03-02T01:25:59;8.20;99.90
20068;DHT22;10194;50.824;7.134;2024-03-02T01:28:25;8.10;99.90
20068;DHT22;10194;50.824;7.134;2024-03-02T01:30:50;8.10;99.90
20068;DHT22;10194;50.824;7.134;2024-03-02T01:33:17;8.00;99.90
20068;DHT22;10194;50.824;7.134;2024-03-02T01:35:43;8.00;99.90
20068;DHT22;10194;50.824;7.134;2024-03-02T01:38:09;8.00;99.90
20068;DHT22;10194;50.824;7.134;2024-03-02T01:40:36;8.00;99.90
20068;DHT22;10194;50.824;7.134;2024-03-02T01:43:04;8.10;99.90
20068;DHT22;10194;50.824;7.134;2024-03-02T01:45:30;8.00;99.90
20068;DHT22;10194;50.824;7.134;2024-03-02T01:47:56;8.10;99.90
20068;DHT22;10194;50.824;7.134;2024-03-02T01:50:31;8.00;99.90
20068;DHT22;10194;50.824;7.134;2024-03-02T01:52:58;8.10;99.90
20068;DHT22;10194;50.824;7.134;2024-03-02T01:55:25;8.00;99.90
20068;DHT22;10194;50.824;7.134;2024-03-02T01:57:51;8.10;99.90
20068;DHT22;10194;50.824;7.134;2024-03-02T02:00:19;8.00;99.90
20068;DHT22;10194;50.824;7.134;2024-03-02T02:02:46;7.90;99.90
20068;DHT22;10194;50.824;7.134;2024-03-02T02:05:12;7.80;99.90
20068;DHT22;10194;50.824;7.134;2024-03-02T02:07:40;7.80;99.90
20068;DHT22;10194;50.824;7.134;2024-03-02T02:10:07;7.70;99.90
20068;DHT22;10194;50.824;7.134;2024-03-02T02:12:34;7.70;99.90
20068;DHT22;10194;50.824;7.134;2024-03-02T02:15:00;7.70;99.90
20068;DHT22;10194;50.824;7.134;2024-03-02T02:17:26;7.70;99.90
20068;DHT22;10194;50.824;7.134;2024-03-02T02:19:52;7.70;99.90
20068;DHT22;10194;50.824;7.134;2024-03-02T02:22:18;7.70;99.90
20068;DHT22;10194;50.824;7.134;2024-03-02T02:24:43;7.70;99.90
20068;DHT22;10194;50.824;7.134;2024-03-02T02:27:10;7.60;99.90
20068;DHT22;10194;50.824;7.134;2024-03-02T02:29:36;7.60;99.90
20068;DHT22;10194;50.824;7.134;2024-03-02T02:32:02;7.60;99.90
20068;DHT22;10194;50.824;7.134;2024-03-02T02:34:28;7.60;99.90
20068;DHT22;10194;50.824;7.134;2024-03-02T02:36:55;7.50;99.90
20068;DHT22;10194;50.824;7.134;2024-03-02T02:39:21;7.60;99.90
20068;DHT22;10194;50.824;7.134;2024-03-02T02:41:50;7.50;99.90
20068;DHT22;10194;50.824;7.134;2024-03-02T02:44:15;7.50;99.90
20068;DHT22;10194;50.824;7.134;2024-03-02T02:46:41;7.40;99.90
20068;DHT22;10194;50.824;7.134;2024-03-02T02:49:07;7.40;99.90
20068;DHT22;10194;50.824;7.134;2024-03-02T02:51:33;7.40;99.90
20068;DHT22;10194;50.824;7.134;2024-03-02T02:53:59;7.40;99.90
20068;DHT22;10194;50.824;7.134;2024-03-02T02:56:25;7.50;99.90
20068;DHT22;10194;50.824;7.134;2024-03-02T02:58:50;7.50;99.90
20068;DHT22;10194;50.824;7.134;2024-03-02T03:01:16;7.40;99.90
20068;DHT22;10194;50.824;7.134;2024-03-02T03:03:43;7.50;99.90
20068;DHT22;10194;50.824;7.134;2024-03-02T03:06:10;7.50;99.90
20068;DHT22;10194;50.824;7.134;2024-03-02T03:08:36;7.50;99.90
20068;DHT22;10194;50.824;7.134;2024-03-02T03:11:02;7.40;99.90
20068;DHT22;10194;50.824;7.134;2024-03-02T03:13:28;7.40;99.90
20068;DHT22;10194;50.824;7.134;2024-03-02T03:15:54;7.50;99.90
20068;DHT22;10194;50.824;7.134;2024-03-02T03:18:20;7.60;99.90
20068;DHT22;10194;50.824;7.134;2024-03-02T03:20:46;7.70;99.90
20068;DHT22;10194;50.824;7.134;2024-03-02T03:23:11;7.60;99.90
20068;DHT22;10194;50.824;7.134;2024-03-02T03:25:41;7.70;99.90
20068;DHT22;10194;50.824;7.134;2024-03-02T03:28:07;7.70;99.90
20068;DHT22;10194;50.824;7.134;2024-03-02T03:30:37;7.70;99.90
20068;DHT22;10194;50.824;7.134;2024-03-02T03:33:03;7.70;99.90
20068;DHT22;10194;50.824;7.134;2024-03-02T03:35:31;7.70;99.90
20068;DHT22;10194;50.824;7.134;2024-03-02T03:37:58;7.60;99.90
20068;DHT22;10194;50.824;7.134;2024-03-02T03:40:24;7.60;99.90
20068;DHT22;10194;50.824;7.134;2024-03-02T03:42:49;7.60;99.90
20068;DHT22;10194;50.824;7.134;2024-03-02T03:45:16;7.60;99.90
20068;DHT22;10194;50.824;7.134;2024-03-02T03:47:42;7.50;99.90
20068;DHT22;10194;50.824;7.134;2024-03-02T03:50:07;7.50;99.90
20068;DHT22;10194;50.824;7.134;2024-03-02T03:52:33;7.60;99.90
20068;DHT22;10194;50.824;7.134;2024-03-02T03:55:00;7.60;99.90
20068;DHT22;10194;50.824;7.134;2024-03-02T03:57:26;7.60;99.90
20068;DHT22;10194;50.824;7.134;2024-03-02T03:59:52;7.60;99.90
20068;DHT22;10194;50.824;7.134;2024-03-02T04:02:19;7.60;99.90
20068;DHT22;10194;50.824;7.134;2024-03-02T04:04:44;7.60;99.90
20068;DHT22;10194;50.824;7.134;2024-03-02T04:07:10;7.60;99.90
20068;DHT22;10194;50.824;7.134;2024-03-02T04:09:36;7.60;99.90
20068;DHT22;10194;50.824;7.134;2024-03-02T04:12:02;7.60;99.90
20068;DHT22;10194;50.824;7.134;2024-03-02T04:14:27;7.60;99.90
20068;DHT22;10194;50.824;7.134;2024-03-02T04:16:53;7.50;99.90
20068;DHT22;10194;50.824;7.134;2024-03-02T04:19:19;7.40;99.90
20068;DHT22;10194;50.824;7.134;2024-03-02T04:21:45;7.40;99.90
20068;DHT22;10194;50.824;7.134;2024-03-02T04:24:10;7.30;99.90
20068;DHT22;10194;50.824;7.134;2024-03-02T04:26:36;7.30;99.90
20068;DHT22;10194;50.824;7.134;2024-03-02T04:29:02;7.20;99.90
20068;DHT22;10194;50.824;7.134;2024-03-02T04:31:28;7.10;99.90
20068;DHT22;10194;50.824;7.134;2024-03-02T04:33:54;7.10;99.90
20068;DHT22;10194;50.824;7.134;2024-03-02T04:36:20;7.10;99.90
20068;DHT22;10194;50.824;7.134;2024-03-02T04:38:46;7.20;99.90
20068;DHT22;10194;50.824;7.134;2024-03-02T04:41:12;7.20;99.90
20068;DHT22;10194;50.824;7.134;2024-03-02T04:43:38;7.20;99.90
20068;DHT22;10194;50.824;7.134;2024-03-02T04:46:04;7.20;99.90
20068;DHT22;10194;50.824;7.134;2024-03-02T04:48:31;7.30;99.90
20068;DHT22;10194;50.824;7.134;2024-03-02T04:50:57;7.30;99.90
20068;DHT22;10194;50.824;7.134;2024-03-02T04:53:22;7.30;99.90
20068;DHT22;10194;50.824;7.134;2024-03-02T04:55:48;7.30;99.90
20068;DHT22;10194;50.824;7.134;2024-03-02T04:58:32;7.30;99.90
20068;DHT22;10194;50.824;7.134;2024-03-02T05:00:58;7.20;99.90
20068;DHT22;10194;50.824;7.134;2024-03-02T05:03:23;7.20;99.90
20068;DHT22;10194;50.824;7.134;2024-03-02T05:05:49;7.20;99.90
20068;DHT22;10194;50.824;7.134;2024-03-02T05:08:15;7.20;99.90
20068;DHT22;10194;50.824;7.134;2024-03-02T05:10:42;7.20;99.90
20068;DHT22;10194;50.824;7.134;2024-03-02T05:13:08;7.10;99.90
20068;DHT22;10194;50.824;7.134;2024-03-02T05:15:33;7.00;99.90
20068;DHT22;10194;50.824;7.134;2024-03-02T05:17:59;7.00;99.90
20068;DHT22;10194;50.824;7.134;2024-03-02T05:20:27;6.90;99.90
20068;DHT22;10194;50.824;7.134;2024-03-02T05:22:53;6.90;99.90
20068;DHT22;10194;50.824;7.134;2024-03-02T05:25:19;6.90;99.90
20068;DHT22;10194;50.824;7.134;2024-03-02T05:27:45;6.80;99.90
20068;DHT22;10194;50.824;7.134;2024-03-02T05:30:12;6.80;99.90
20068;DHT22;10194;50.824;7.134;2024-03-02T05:32:38;6.90;99.90
20068;DHT22;10194;50.824;7.134;2024-03-02T05:35:04;6.80;99.90
20068;DHT22;10194;50.824;7.134;2024-03-02T05:37:30;6.70;99.90
20068;DHT22;10194;50.824;7.134;2024-03-02T05:39:56;6.70;99.90
20068;DHT22;10194;50.824;7.134;2024-03-02T05:42:22;6.60;99.90
20068;DHT22;10194;50.824;7.134;2024-03-02T05:44:47;6.60;99.90
20068;DHT22;10194;50.824;7.134;2024-03-02T05:47:13;6.60;99.90
20068;DHT22;10194;50.824;7.134;2024-03-02T05:49:39;6.60;99.90
20068;DHT22;10194;50.824;7.134;2024-03-02T05:52:05;6.50;99.90
20068;DHT22;10194;50.824;7.134;2024-03-02T05:54:32;6.50;99.90
20068;DHT22;10194;50.824;7.134;2024-03-02T05:56:57;6.50;99.90
20068;DHT22;10194;50.824;7.134;2024-03-02T05:59:41;6.50;99.90
20068;DHT22;10194;50.824;7.134;2024-03-02T06:02:07;6.50;99.90
20068;DHT22;10194;50.824;7.134;2024-03-02T06:04:33;6.40;99.90
20068;DHT22;10194;50.824;7.134;2024-03-02T06:06:59;6.40;99.90
20068;DHT22;10194;50.824;7.134;2024-03-02T06:09:24;6.40;99.90
20068;DHT22;10194;50.824;7.134;2024-03-02T06:11:51;6.40;99.90
20068;DHT22;10194;50.824;7.134;2024-03-02T06:14:17;6.60;99.90
20068;DHT22;10194;50.824;7.134;2024-03-02T06:16:43;6.70;99.90
20068;DHT22;10194;50.824;7.134;2024-03-02T06:19:08;6.70;99.90
20068;DHT22;10194;50.824;7.134;2024-03-02T06:21:34;6.80;99.90
20068;DHT22;10194;50.824;7.134;2024-03-02T06:24:00;6.80;99.90
20068;DHT22;10194;50.824;7.134;2024-03-02T06:26:26;6.80;99.90
20068;DHT22;10194;50.824;7.134;2024-03-02T06:28:52;6.80;99.90
20068;DHT22;10194;50.824;7.134;2024-03-02T06:31:18;6.80;99.90
20068;DHT22;10194;50.824;7.134;2024-03-02T06:33:44;6.90;99.90
20068;DHT22;10194;50.824;7.134;2024-03-02T06:36:09;6.90;99.90
20068;DHT22;10194;50.824;7.134;2024-03-02T06:38:37;6.90;99.90
20068;DHT22;10194;50.824;7.134;2024-03-02T06:41:03;7.00;99.90
20068;DHT22;10194;50.824;7.134;2024-03-02T06:43:29;7.00;99.90
20068;DHT22;10194;50.824;7.134;2024-03-02T06:45:54;7.00;99.90
20068;DHT22;10194;50.824;7.134;2024-03-02T06:48:20;7.00;99.90
20068;DHT22;10194;50.824;7.134;2024-03-02T06:50:47;7.10;99.90
20068;DHT22;10194;50.824;7.134;2024-03-02T06:53:16;7.10;99.90
20068;DHT22;10194;50.824;7.134;2024-03-02T06:55:46;7.10;99.90
20068;DHT22;10194;50.824;7.134;2024-03-02T06:58:12;7.20;99.90
20068;DHT22;10194;50.824;7.134;2024-03-02T07:00:40;7.30;99.90
20068;DHT22;10194;50.824;7.134;2024-03-02T07:03:13;7.30;99.90
20068;DHT22;10194;50.824;7.134;2024-03-02T07:05:39;7.30;99.90
20068;DHT22;10194;50.824;7.134;2024-03-02T07:08:05;7.40;99.90
20068;DHT22;10194;50.824;7.134;2024-03-02T07:10:31;7.40;99.90
20068;DHT22;10194;50.824;7.134;2024-03-02T07:12:57;7.40;99.90
20068;DHT22;10194;50.824;7.134;2024-03-02T07:15:23;7.40;99.90
20068;DHT22;10194;50.824;7.134;2024-03-02T07:18:04;7.40;99.90
20068;DHT22;10194;50.824;7.134;2024-03-02T07:20:30;7.50;99.90
20068;DHT22;10194;50.824;7.134;2024-03-02T07:22:55;7.50;99.90
20068;DHT22;10194;50.824;7.134;2024-03-02T07:25:21;7.60;99.90
20068;DHT22;10194;50.824;7.134;2024-03-02T07:27:47;7.90;99.90
20068;DHT22;10194;50.824;7.134;2024-03-02T07:30:16;8.30;99.90
20068;DHT22;10194;50.824;7.134;2024-03-02T07:32:42;8.50;99.90
20068;DHT22;10194;50.824;7.134;2024-03-02T07:35:11;8.70;99.90
20068;DHT22;10194;50.824;7.134;2024-03-02T07:37:39;9.20;99.90
20068;DHT22;10194;50.824;7.134;2024-03-02T07:40:05;9.50;99.90
20068;DHT22;10194;50.824;7.134;2024-03-02T07:42:34;9.70;99.90
20068;DHT22;10194;50.824;7.134;2024-03-02T07:45:00;9.80;99.90
20068;DHT22;10194;50.824;7.134;2024-03-02T07:47:26;10.10;99.90
20068;DHT22;10194;50.824;7.134;2024-03-02T07:49:52;9.90;99.90
20068;DHT22;10194;50.824;7.134;2024-03-02T07:52:17;9.50;99.90
20068;DHT22;10194;50.824;7.134;2024-03-02T07:54:43;9.20;99.90
20068;DHT22;10194;50.824;7.134;2024-03-02T07:57:09;9.10;99.90
20068;DHT22;10194;50.824;7.134;2024-03-02T07:59:36;9.10;99.90
20068;DHT22;10194;50.824;7.134;2024-03-02T08:02:02;9.10;99.90
20068;DHT22;10194;50.824;7.134;2024-03-02T08:04:28;9.10;99.90
20068;DHT22;10194;50.824;7.134;2024-03-02T08:06:54;9.30;99.90
20068;DHT22;10194;50.824;7.134;2024-03-02T08:09:20;9.40;99.90
20068;DHT22;10194;50.824;7.134;2024-03-02T08:11:45;9.50;99.90
20068;DHT22;10194;50.824;7.134;2024-03-02T08:14:11;9.50;99.90
20068;DHT22;10194;50.824;7.134;2024-03-02T08:16:37;9.60;99.90
20068;DHT22;10194;50.824;7.134;2024-03-02T08:19:03;9.70;99.90
20068;DHT22;10194;50.824;7.134;2024-03-02T08:21:28;9.70;99.90
20068;DHT22;10194;50.824;7.134;2024-03-02T08:23:56;9.80;99.90
20068;DHT22;10194;50.824;7.134;2024-03-02T08:26:23;9.90;99.90
20068;DHT22;10194;50.824;7.134;2024-03-02T08:28:49;10.00;99.90
20068;DHT22;10194;50.824;7.134;2024-03-02T08:31:14;10.20;99.90
20068;DHT22;10194;50.824;7.134;2024-03-02T08:33:40;10.30;99.90
20068;DHT22;10194;50.824;7.134;2024-03-02T08:36:06;10.30;99.90
20068;DHT22;10194;50.824;7.134;2024-03-02T08:38:32;10.20;99.90
20068;DHT22;10194;50.824;7.134;2024-03-02T08:40:58;10.20;99.90
20068;DHT22;10194;50.824;7.134;2024-03-02T08:43:24;10.40;99.90
20068;DHT22;10194;50.824;7.134;2024-03-02T08:45:50;10.40;99.90
20068;DHT22;10194;50.824;7.134;2024-03-02T08:48:16;10.50;99.90
20068;DHT22;10194;50.824;7.134;2024-03-02T08:50:42;10.40;99.90
20068;DHT22;10194;50.824;7.134;2024-03-02T08:53:07;10.60;99.90
20068;DHT22;10194;50.824;7.134;2024-03-02T08:55:33;10.60;99.90
20068;DHT22;10194;50.824;7.134;2024-03-02T08:57:59;10.70;99.90
20068;DHT22;10194;50.824;7.134;2024-03-02T09:00:25;10.90;99.90
20068;DHT22;10194;50.824;7.134;2024-03-02T09:02:51;10.90;99.90
20068;DHT22;10194;50.824;7.134;2024-03-02T09:05:17;10.90;99.90
20068;DHT22;10194;50.824;7.134;2024-03-02T09:07:43;11.10;99.90
20068;DHT22;10194;50.824;7.134;2024-03-02T09:10:09;11.20;99.90
20068;DHT22;10194;50.824;7.134;2024-03-02T09:12:35;11.10;99.90
20068;DHT22;10194;50.824;7.134;2024-03-02T09:15:01;11.10;99.90
20068;DHT22;10194;50.824;7.134;2024-03-02T09:17:28;11.00;99.90
20068;DHT22;10194;50.824;7.134;2024-03-02T09:19:55;11.00;99.90
20068;DHT22;10194;50.824;7.134;2024-03-02T09:22:21;11.00;99.90
20068;DHT22;10194;50.824;7.134;2024-03-02T09:24:47;10.90;99.90
20068;DHT22;10194;50.824;7.134;2024-03-02T09:27:12;11.00;99.90
20068;DHT22;10194;50.824;7.134;2024-03-02T09:29:38;10.90;99.90
20068;DHT22;10194;50.824;7.134;2024-03-02T09:32:05;10.90;99.90
20068;DHT22;10194;50.824;7.134;2024-03-02T09:34:31;10.90;99.90
20068;DHT22;10194;50.824;7.134;2024-03-02T09:36:57;10.90;99.90
20068;DHT22;10194;50.824;7.134;2024-03-02T09:39:23;10.80;99.90
20068;DHT22;10194;50.824;7.134;2024-03-02T09:41:50;11.10;99.90
20068;DHT22;10194;50.824;7.134;2024-03-02T09:44:16;11.20;99.90
20068;DHT22;10194;50.824;7.134;2024-03-02T09:46:43;11.20;99.90
20068;DHT22;10194;50.824;7.134;2024-03-02T09:49:10;11.30;99.90
20068;DHT22;10194;50.824;7.134;2024-03-02T09:51:37;11.50;99.90
20068;DHT22;10194;50.824;7.134;2024-03-02T09:54:03;11.40;99.90
20068;DHT22;10194;50.824;7.134;2024-03-02T09:56:29;11.40;99.90
20068;DHT22;10194;50.824;7.134;2024-03-02T09:58:55;11.60;99.90
20068;DHT22;10194;50.824;7.134;2024-03-02T10:01:20;11.70;99.90
20068;DHT22;10194;50.824;7.134;2024-03-02T10:03:47;12.10;99.90
20068;DHT22;10194;50.824;7.134;2024-03-02T10:06:24;12.30;99.90
20068;DHT22;10194;50.824;7.134;2024-03-02T10:08:51;12.50;99.90
20068;DHT22;10194;50.824;7.134;2024-03-02T10:11:32;12.40;99.90
20068;DHT22;10194;50.824;7.134;2024-03-02T10:14:13;12.50;99.90
20068;DHT22;10194;50.824;7.134;2024-03-02T10:16:45;12.60;99.90
20068;DHT22;10194;50.824;7.134;2024-03-02T10:19:22;12.50;99.90
20068;DHT22;10194;50.824;7.134;2024-03-02T10:21:50;12.50;99.90
20068;DHT22;10194;50.824;7.134;2024-03-02T10:24:18;12.50;99.90
20068;DHT22;10194;50.824;7.134;2024-03-02T10:26:44;12.60;99.90
20068;DHT22;10194;50.824;7.134;2024-03-02T10:29:11;12.80;99.90
20068;DHT22;10194;50.824;7.134;2024-03-02T10:31:38;12.80;99.90
20068;DHT22;10194;50.824;7.134;2024-03-02T10:34:06;12.70;99.90
20068;DHT22;10194;50.824;7.134;2024-03-02T10:36:37;12.70;99.90
20068;DHT22;10194;50.824;7.134;2024-03-02T10:39:04;12.70;99.90
20068;DHT22;10194;50.824;7.134;2024-03-02T10:41:35;12.80;99.90
20068;DHT22;10194;50.824;7.134;2024-03-02T10:44:03;12.80;99.90
20068;DHT22;10194;50.824;7.134;2024-03-02T10:46:31;12.70;99.90
20068;DHT22;10194;50.824;7.134;2024-03-02T10:48:59;12.70;99.90
20068;DHT22;10194;50.824;7.134;2024-03-02T10:51:27;12.70;99.90
20068;DHT22;10194;50.824;7.134;2024-03-02T10:53:57;12.60;99.90
20068;DHT22;10194;50.824;7.134;2024-03-02T10:56:31;12.70;99.90
20068;DHT22;10194;50.824;7.134;2024-03-02T10:59:17;12.80;99.90
20068;DHT22;10194;50.824;7.134;2024-03-02T11:01:50;12.70;99.90
20068;DHT22;10194;50.824;7.134;2024-03-02T11:04:21;12.60;99.90
20068;DHT22;10194;50.824;7.134;2024-03-02T11:06:50;12.60;99.90
20068;DHT22;10194;50.824;7.134;2024-03-02T11:09:27;12.80;99.90
20068;DHT22;10194;50.824;7.134;2024-03-02T11:14:42;13.00;99.90
20068;DHT22;10194;50.824;7.134;2024-03-02T11:17:13;12.80;99.90
20068;DHT22;10194;50.824;7.134;2024-03-02T11:19:41;12.70;99.90
20068;DHT22;10194;50.824;7.134;2024-03-02T11:22:08;12.80;99.90
20068;DHT22;10194;50.824;7.134;2024-03-02T11:24:35;13.00;99.90
20068;DHT22;10194;50.824;7.134;2024-03-02T11:27:05;13.20;99.90
20068;DHT22;10194;50.824;7.134;2024-03-02T11:34:42;13.70;99.90
20068;DHT22;10194;50.824;7.134;2024-03-02T11:37:19;13.50;99.90
20068;DHT22;10194;50.824;7.134;2024-03-02T11:39:50;13.20;99.90
20068;DHT22;10194;50.824;7.134;2024-03-02T11:42:17;13.20;99.90
20068;DHT22;10194;50.824;7.134;2024-03-02T11:44:46;13.00;99.90
20068;DHT22;10194;50.824;7.134;2024-03-02T11:47:16;12.90;99.90
20068;DHT22;10194;50.824;7.134;2024-03-02T11:49:50;12.80;99.90
20068;DHT22;10194;50.824;7.134;2024-03-02T11:52:20;12.90;99.90
20068;DHT22;10194;50.824;7.134;2024-03-02T11:54:48;12.80;99.90
20068;DHT22;10194;50.824;7.134;2024-03-02T11:57:32;12.80;99.90
20068;DHT22;10194;50.824;7.134;2024-03-02T11:59:58;12.80;99.90
20068;DHT22;10194;50.824;7.134;2024-03-02T12:02:24;12.90;99.90
20068;DHT22;10194;50.824;7.134;2024-03-02T12:04:50;12.90;99.90
20068;DHT22;10194;50.824;7.134;2024-03-02T12:07:20;13.00;99.90
20068;DHT22;10194;50.824;7.134;2024-03-02T12:09:48;13.10;99.90
20068;DHT22;10194;50.824;7.134;2024-03-02T12:12:14;13.30;99.90
20068;DHT22;10194;50.824;7.134;2024-03-02T12:14:53;13.30;99.90
20068;DHT22;10194;50.824;7.134;2024-03-02T12:17:21;13.30;99.90
20068;DHT22;10194;50.824;7.134;2024-03-02T12:19:47;13.40;99.90
20068;DHT22;10194;50.824;7.134;2024-03-02T12:22:13;13.30;99.90
20068;DHT22;10194;50.824;7.134;2024-03-02T12:24:41;13.30;99.90
20068;DHT22;10194;50.824;7.134;2024-03-02T12:27:07;13.20;99.90
20068;DHT22;10194;50.824;7.134;2024-03-02T12:29:34;13.10;99.90
20068;DHT22;10194;50.824;7.134;2024-03-02T12:32:00;13.10;99.90
20068;DHT22;10194;50.824;7.134;2024-03-02T12:34:28;13.10;99.90
20068;DHT22;10194;50.824;7.134;2024-03-02T12:36:54;13.10;99.90
20068;DHT22;10194;50.824;7.134;2024-03-02T12:39:20;13.10;99.90
20068;DHT22;10194;50.824;7.134;2024-03-02T12:41:47;13.20;99.90
20068;DHT22;10194;50.824;7.134;2024-03-02T12:44:16;13.10;99.90
20068;DHT22;10194;50.824;7.134;2024-03-02T12:46:42;13.30;99.90
20068;DHT22;10194;50.824;7.134;2024-03-02T12:49:09;13.20;99.90
20068;DHT22;10194;50.824;7.134;2024-03-02T12:51:40;13.20;99.90
20068;DHT22;10194;50.824;7.134;2024-03-02T12:54:10;13.30;99.90
20068;DHT22;10194;50.824;7.134;2024-03-02T12:56:37;13.50;99.90
20068;DHT22;10194;50.824;7.134;2024-03-02T12:59:03;13.50;99.90
20068;DHT22;10194;50.824;7.134;2024-03-02T13:01:30;13.40;99.90
20068;DHT22;10194;50.824;7.134;2024-03-02T13:03:58;13.30;99.90
20068;DHT22;10194;50.824;7.134;2024-03-02T13:06:24;13.40;99.90
20068;DHT22;10194;50.824;7.134;2024-03-02T13:08:54;13.40;99.90
20068;DHT22;10194;50.824;7.134;2024-03-02T13:11:22;13.40;99.90
20068;DHT22;10194;50.824;7.134;2024-03-02T13:13:48;13.50;99.90
20068;DHT22;10194;50.824;7.134;2024-03-02T13:16:15;13.50;99.90
20068;DHT22;10194;50.824;7.134;2024-03-02T13:18:42;13.60;99.90
20068;DHT22;10194;50.824;7.134;2024-03-02T13:21:10;13.60;99.90
20068;DHT22;10194;50.824;7.134;2024-03-02T13:23:35;13.70;99.90
20068;DHT22;10194;50.824;7.134;2024-03-02T13:26:02;13.80;99.90
20068;DHT22;10194;50.824;7.134;2024-03-02T13:28:28;13.70;99.90
20068;DHT22;10194;50.824;7.134;2024-03-02T13:30:53;13.90;99.90
20068;DHT22;10194;50.824;7.134;2024-03-02T13:33:19;13.90;99.90
20068;DHT22;10194;50.824;7.134;2024-03-02T13:35:51;13.90;99.90
20068;DHT22;10194;50.824;7.134;2024-03-02T13:38:20;14.00;99.90
20068;DHT22;10194;50.824;7.134;2024-03-02T13:40:48;14.10;99.90
20068;DHT22;10194;50.824;7.134;2024-03-02T13:43:18;14.10;99.90
20068;DHT22;10194;50.824;7.134;2024-03-02T13:45:44;14.20;99.90
20068;DHT22;10194;50.824;7.134;2024-03-02T13:48:10;14.20;99.90
20068;DHT22;10194;50.824;7.134;2024-03-02T13:50:36;14.30;99.90
20068;DHT22;10194;50.824;7.134;2024-03-02T13:53:02;14.30;99.90
20068;DHT22;10194;50.824;7.134;2024-03-02T13:55:28;14.40;99.90
20068;DHT22;10194;50.824;7.134;2024-03-02T13:57:54;14.50;99.90
20068;DHT22;10194;50.824;7.134;2024-03-02T14:00:20;14.40;99.90
20068;DHT22;10194;50.824;7.134;2024-03-02T14:02:46;14.30;99.90
20068;DHT22;10194;50.824;7.134;2024-03-02T14:05:15;14.20;99.90
20068;DHT22;10194;50.824;7.134;2024-03-02T14:07:41;14.20;99.90
20068;DHT22;10194;50.824;7.134;2024-03-02T14:10:08;14.20;99.90
20068;DHT22;10194;50.824;7.134;2024-03-02T14:12:34;14.20;99.90
20068;DHT22;10194;50.824;7.134;2024-03-02T14:15:00;14.20;99.90
20068;DHT22;10194;50.824;7.134;2024-03-02T14:17:28;14.30;99.90
20068;DHT22;10194;50.824;7.134;2024-03-02T14:19:54;14.30;99.90
20068;DHT22;10194;50.824;7.134;2024-03-02T14:22:20;14.20;99.90
20068;DHT22;10194;50.824;7.134;2024-03-02T14:24:46;14.30;99.90
20068;DHT22;10194;50.824;7.134;2024-03-02T14:27:13;14.20;99.90
20068;DHT22;10194;50.824;7.134;2024-03-02T14:29:40;14.10;99.90
20068;DHT22;10194;50.824;7.134;2024-03-02T14:32:06;14.00;99.90
20068;DHT22;10194;50.824;7.134;2024-03-02T14:34:33;13.90;99.90
20068;DHT22;10194;50.824;7.134;2024-03-02T14:36:59;13.90;99.90
20068;DHT22;10194;50.824;7.134;2024-03-02T14:39:26;13.90;99.90
20068;DHT22;10194;50.824;7.134;2024-03-02T14:41:52;13.90;99.90
20068;DHT22;10194;50.824;7.134;2024-03-02T14:44:20;13.80;99.90
20068;DHT22;10194;50.824;7.134;2024-03-02T14:46:49;13.80;99.90
20068;DHT22;10194;50.824;7.134;2024-03-02T14:49:15;13.80;99.90
20068;DHT22;10194;50.824;7.134;2024-03-02T14:51:41;13.80;99.90
20068;DHT22;10194;50.824;7.134;2024-03-02T14:54:07;13.90;99.90
20068;DHT22;10194;50.824;7.134;2024-03-02T14:56:33;13.80;99.90
20068;DHT22;10194;50.824;7.134;2024-03-02T14:58:59;13.80;99.90
20068;DHT22;10194;50.824;7.134;2024-03-02T15:01:24;13.80;99.90
20068;DHT22;10194;50.824;7.134;2024-03-02T15:03:51;13.80;99.90
20068;DHT22;10194;50.824;7.134;2024-03-02T15:06:17;13.80;99.90
20068;DHT22;10194;50.824;7.134;2024-03-02T15:08:44;13.80;99.90
20068;DHT22;10194;50.824;7.134;2024-03-02T15:11:12;13.90;99.90
20068;DHT22;10194;50.824;7.134;2024-03-02T15:13:38;13.90;99.90
20068;DHT22;10194;50.824;7.134;2024-03-02T15:16:04;13.90;99.90
20068;DHT22;10194;50.824;7.134;2024-03-02T15:18:30;13.90;99.90
20068;DHT22;10194;50.824;7.134;2024-03-02T15:20:56;13.90;99.90
20068;DHT22;10194;50.824;7.134;2024-03-02T15:23:22;13.90;99.90
20068;DHT22;10194;50.824;7.134;2024-03-02T15:25:49;13.90;99.90
20068;DHT22;10194;50.824;7.134;2024-03-02T15:28:15;14.00;99.90
20068;DHT22;10194;50.824;7.134;2024-03-02T15:30:41;14.10;99.90
20068;DHT22;10194;50.824;7.134;2024-03-02T15:33:06;14.10;99.90
20068;DHT22;10194;50.824;7.134;2024-03-02T15:35:32;14.20;99.90
20068;DHT22;10194;50.824;7.134;2024-03-02T15:37:58;14.20;99.90
20068;DHT22;10194;50.824;7.134;2024-03-02T15:40:24;14.10;99.90
20068;DHT22;10194;50.824;7.134;2024-03-02T15:42:51;14.00;99.90
20068;DHT22;10194;50.824;7.134;2024-03-02T15:45:17;14.00;99.90
20068;DHT22;10194;50.824;7.134;2024-03-02T15:47:42;14.00;99.90
20068;DHT22;10194;50.824;7.134;2024-03-02T15:50:09;14.00;99.90
20068;DHT22;10194;50.824;7.134;2024-03-02T15:52:35;13.90;99.90